Time,TemperatureF,DewpointF,PressureIn,WindDirection,WindDirectionDegrees,WindSpeedMPH,WindSpeedGustMPH,Humidity,HourlyPrecipIn,Conditions,Clouds,dailyrainin,SoftwareType,DateUTC
2013-05-20 00:03:00,74.5,67.1,29.65,East,90,2.0,2.0,78,0.00,,,0.03,meteohub,2013-05-20 05:03:00,
2013-05-20 00:08:00,74.7,67.3,29.65,ENE,68,1.0,2.0,78,0.00,,,0.00,meteohub,2013-05-20 05:08:00,
2013-05-20 00:13:00,74.8,67.5,29.65,SE,135,2.0,2.0,78,0.00,,,0.00,meteohub,2013-05-20 05:13:00,
2013-05-20 00:18:00,75.0,67.6,29.64,ESE,113,4.0,4.0,78,0.00,,,0.00,meteohub,2013-05-20 05:18:00,
2013-05-20 00:23:00,75.0,67.6,29.64,East,90,0.0,4.0,78,0.00,,,0.00,meteohub,2013-05-20 05:23:00,
2013-05-20 00:28:00,75.0,67.6,29.64,NNW,338,2.0,4.0,78,0.00,,,0.00,meteohub,2013-05-20 05:28:00,
2013-05-20 00:33:00,75.0,67.6,29.64,ENE,68,1.0,4.0,78,0.00,,,0.00,meteohub,2013-05-20 05:33:00,
2013-05-20 00:38:00,75.0,67.6,29.65,ESE,113,2.0,4.0,78,0.00,,,0.00,meteohub,2013-05-20 05:38:00,
2013-05-20 00:43:00,74.8,67.5,29.65,SE,135,3.0,4.0,78,0.00,,,0.00,meteohub,2013-05-20 05:43:00,
2013-05-20 00:48:00,74.7,67.3,29.65,SE,135,2.0,3.0,78,0.00,,,0.00,meteohub,2013-05-20 05:48:00,
2013-05-20 00:53:00,74.7,67.3,29.65,ESE,113,2.0,4.0,78,0.00,,,0.00,meteohub,2013-05-20 05:53:00,
2013-05-20 00:58:00,74.5,67.1,29.67,WNW,293,1.0,4.0,78,0.00,,,0.00,meteohub,2013-05-20 05:58:00,
2013-05-20 01:03:00,74.5,67.1,29.67,ENE,68,0.0,4.0,78,0.00,,,0.00,meteohub,2013-05-20 06:03:00,
2013-05-20 01:08:00,74.3,66.9,29.67,SSE,158,0.0,5.0,78,0.00,,,0.00,meteohub,2013-05-20 06:08:00,
2013-05-20 01:13:00,74.3,65.5,29.67,NW,315,8.0,8.0,74,0.00,,,0.00,meteohub,2013-05-20 06:13:00,
2013-05-20 01:18:00,73.0,62.6,29.77,WSW,248,17.0,19.0,70,0.00,,,0.00,meteohub,2013-05-20 06:18:00,
2013-05-20 01:23:00,70.7,60.8,29.78,WNW,293,10.0,19.0,71,0.00,,,0.00,meteohub,2013-05-20 06:23:00,
2013-05-20 01:28:00,69.4,60.4,29.78,West,270,9.0,19.0,73,0.00,,,0.00,meteohub,2013-05-20 06:28:00,
2013-05-20 01:33:00,68.5,60.3,29.78,SW,225,12.0,17.0,75,0.00,,,0.00,meteohub,2013-05-20 06:33:00,
2013-05-20 01:38:00,67.8,59.9,29.79,WSW,248,13.0,17.0,76,0.00,,,0.00,meteohub,2013-05-20 06:38:00,
2013-05-20 01:43:00,66.6,59.2,29.79,West,270,0.0,13.0,77,0.00,,,0.00,meteohub,2013-05-20 06:43:00,
2013-05-20 01:48:00,66.0,59.0,29.80,NW,315,0.0,13.0,78,0.00,,,0.00,meteohub,2013-05-20 06:48:00,
2013-05-20 01:53:00,65.7,59.0,29.80,West,270,0.0,13.0,79,0.03,,,0.03,meteohub,2013-05-20 06:53:00,
2013-05-20 01:58:00,65.1,58.8,29.78,WSW,248,1.0,7.0,80,0.03,,,0.03,meteohub,2013-05-20 06:58:00,
2013-05-20 02:03:00,64.6,58.6,29.79,West,270,0.0,3.0,81,0.06,,,0.06,meteohub,2013-05-20 07:03:00,
2013-05-20 02:08:00,64.2,58.3,29.79,WSW,248,0.0,3.0,81,0.06,,,0.06,meteohub,2013-05-20 07:08:00,
2013-05-20 02:13:00,63.7,58.1,29.79,East,90,0.0,3.0,82,0.08,,,0.08,meteohub,2013-05-20 07:13:00,
2013-05-20 02:18:00,63.5,58.3,29.78,ESE,113,0.0,2.0,83,0.08,,,0.08,meteohub,2013-05-20 07:18:00,
2013-05-20 02:23:00,63.1,57.9,29.78,ESE,113,0.0,0.0,83,0.08,,,0.08,meteohub,2013-05-20 07:23:00,
2013-05-20 02:28:00,63.0,58.1,29.78,SSW,203,0.0,0.0,84,0.08,,,0.08,meteohub,2013-05-20 07:28:00,
2013-05-20 02:33:00,62.8,57.9,29.78,South,180,0.0,0.0,84,0.08,,,0.08,meteohub,2013-05-20 07:33:00,
2013-05-20 02:38:00,62.6,58.1,29.75,East,90,0.0,0.0,85,0.08,,,0.08,meteohub,2013-05-20 07:38:00,
2013-05-20 02:43:00,62.4,58.1,29.75,ESE,113,3.0,0.0,86,0.08,,,0.08,meteohub,2013-05-20 07:43:00,
2013-05-20 02:48:00,62.2,57.9,29.75,ESE,113,2.0,3.0,86,0.06,,,0.08,meteohub,2013-05-20 07:48:00,
2013-05-20 02:53:00,62.1,57.7,29.76,ENE,68,0.0,3.0,86,0.06,,,0.08,meteohub,2013-05-20 07:53:00,
2013-05-20 02:58:00,62.1,57.7,29.73,ESE,113,2.0,3.0,86,0.03,,,0.08,meteohub,2013-05-20 07:58:00,
2013-05-20 03:04:00,61.9,57.9,29.73,ESE,113,2.0,3.0,87,0.03,,,0.08,meteohub,2013-05-20 08:04:00,
2013-05-20 03:09:00,61.7,57.7,29.73,ESE,113,0.0,4.0,87,0.00,,,0.08,meteohub,2013-05-20 08:09:00,
2013-05-20 03:14:00,61.7,57.7,29.73,East,90,0.0,4.0,87,0.00,,,0.08,meteohub,2013-05-20 08:14:00,
2013-05-20 03:19:00,61.7,57.7,29.72,ESE,113,0.0,4.0,87,0.00,,,0.08,meteohub,2013-05-20 08:19:00,
2013-05-20 03:24:00,61.7,58.1,29.72,ESE,113,2.0,2.0,88,0.00,,,0.08,meteohub,2013-05-20 08:24:00,
2013-05-20 03:29:00,61.9,58.3,29.72,ENE,68,1.0,2.0,88,0.00,,,0.08,meteohub,2013-05-20 08:29:00,
2013-05-20 03:34:00,61.9,58.3,29.72,ESE,113,0.0,2.0,88,0.00,,,0.08,meteohub,2013-05-20 08:34:00,
2013-05-20 03:39:00,62.1,58.5,29.73,ESE,113,2.0,2.0,88,0.00,,,0.08,meteohub,2013-05-20 08:39:00,
2013-05-20 03:44:00,62.1,58.5,29.73,ESE,113,0.0,2.0,88,0.00,,,0.08,meteohub,2013-05-20 08:44:00,
2013-05-20 03:49:00,62.1,58.5,29.73,East,90,0.0,2.0,88,0.00,,,0.08,meteohub,2013-05-20 08:49:00,
2013-05-20 03:54:00,61.9,58.3,29.73,ENE,68,0.0,2.0,88,0.00,,,0.08,meteohub,2013-05-20 08:54:00,
2013-05-20 03:59:00,62.1,58.5,29.74,SE,135,0.0,2.0,88,0.00,,,0.08,meteohub,2013-05-20 08:59:00,
2013-05-20 04:04:00,62.1,58.8,29.74,SE,135,0.0,2.0,89,0.00,,,0.08,meteohub,2013-05-20 09:04:00,
2013-05-20 04:09:00,62.2,59.0,29.74,ESE,113,2.0,2.0,89,0.00,,,0.08,meteohub,2013-05-20 09:09:00,
2013-05-20 04:14:00,62.2,59.0,29.74,East,90,0.0,0.0,89,0.00,,,0.08,meteohub,2013-05-20 09:14:00,
2013-05-20 04:19:00,62.2,59.0,29.78,NW,315,0.0,2.0,89,0.00,,,0.08,meteohub,2013-05-20 09:19:00,
2013-05-20 04:24:00,62.2,59.0,29.78,WNW,293,3.0,3.0,89,0.00,,,0.08,meteohub,2013-05-20 09:24:00,
2013-05-20 04:29:00,62.4,59.2,29.77,WNW,293,2.0,2.0,89,0.00,,,0.08,meteohub,2013-05-20 09:29:00,
2013-05-20 04:34:00,62.4,59.2,29.77,South,180,0.0,3.0,89,0.00,,,0.08,meteohub,2013-05-20 09:34:00,
2013-05-20 04:39:00,62.4,59.2,29.78,ESE,113,0.0,3.0,89,0.00,,,0.08,meteohub,2013-05-20 09:39:00,
2013-05-20 04:44:00,62.6,59.4,29.78,ESE,113,0.0,2.0,89,0.00,,,0.08,meteohub,2013-05-20 09:44:00,
2013-05-20 04:49:00,62.4,59.2,29.78,ESE,113,0.0,2.0,89,0.00,,,0.08,meteohub,2013-05-20 09:49:00,
2013-05-20 04:54:00,62.4,59.2,29.78,NW,315,0.0,2.0,89,0.00,,,0.08,meteohub,2013-05-20 09:54:00,
2013-05-20 04:59:00,62.4,59.2,29.80,NW,315,0.0,2.0,89,0.00,,,0.08,meteohub,2013-05-20 09:59:00,
2013-05-20 05:04:00,62.6,59.4,29.80,NW,315,2.0,0.0,89,0.03,,,0.11,meteohub,2013-05-20 10:04:00,
2013-05-20 05:09:00,62.6,59.4,29.80,NW,315,0.0,0.0,89,0.03,,,0.11,meteohub,2013-05-20 10:09:00,
2013-05-20 05:14:00,62.8,59.5,29.80,WSW,248,0.0,2.0,89,0.03,,,0.11,meteohub,2013-05-20 10:14:00,
2013-05-20 05:19:00,62.8,59.5,29.79,WSW,248,0.0,2.0,89,0.03,,,0.11,meteohub,2013-05-20 10:19:00,
2013-05-20 05:24:00,62.6,59.4,29.79,WSW,248,0.0,0.0,89,0.03,,,0.11,meteohub,2013-05-20 10:24:00,
2013-05-20 05:29:00,62.6,59.4,29.79,ESE,113,0.0,1.0,89,0.03,,,0.11,meteohub,2013-05-20 10:29:00,
2013-05-20 05:34:00,62.4,59.2,29.79,ESE,113,0.0,1.0,89,0.03,,,0.11,meteohub,2013-05-20 10:34:00,
2013-05-20 05:39:00,62.4,59.4,29.79,SSW,203,2.0,2.0,90,0.03,,,0.11,meteohub,2013-05-20 10:39:00,
2013-05-20 05:44:00,62.4,59.4,29.79,SSE,158,0.0,2.0,90,0.03,,,0.11,meteohub,2013-05-20 10:44:00,
2013-05-20 05:49:00,62.4,59.4,29.79,ESE,113,3.0,3.0,90,0.03,,,0.11,meteohub,2013-05-20 10:49:00,
2013-05-20 05:54:00,62.4,59.4,29.79,SW,225,2.0,3.0,90,0.03,,,0.11,meteohub,2013-05-20 10:54:00,
2013-05-20 05:59:00,62.4,59.4,29.78,ESE,113,1.0,3.0,90,0.00,,,0.11,meteohub,2013-05-20 10:59:00,
2013-05-20 06:04:00,62.2,59.2,29.78,SE,135,0.0,3.0,90,0.00,,,0.11,meteohub,2013-05-20 11:04:00,
2013-05-20 06:09:00,62.2,59.2,29.78,ESE,113,4.0,4.0,90,0.00,,,0.11,meteohub,2013-05-20 11:09:00,
2013-05-20 06:14:00,62.2,59.2,29.78,SW,225,0.0,4.0,90,0.00,,,0.11,meteohub,2013-05-20 11:14:00,
2013-05-20 06:19:00,62.4,59.4,29.77,ESE,113,0.0,4.0,90,0.00,,,0.11,meteohub,2013-05-20 11:19:00,
2013-05-20 06:24:00,62.2,59.2,29.77,ESE,113,0.0,4.0,90,0.00,,,0.11,meteohub,2013-05-20 11:24:00,
2013-05-20 06:29:00,62.4,59.4,29.77,ESE,113,0.0,4.0,90,0.00,,,0.11,meteohub,2013-05-20 11:29:00,
2013-05-20 06:34:00,62.4,59.4,29.77,ESE,113,0.0,0.0,90,0.00,,,0.11,meteohub,2013-05-20 11:34:00,
2013-05-20 06:39:00,62.4,59.4,29.78,ESE,113,0.0,0.0,90,0.00,,,0.11,meteohub,2013-05-20 11:39:00,
2013-05-20 06:44:00,62.4,59.4,29.78,East,90,0.0,0.0,90,0.00,,,0.11,meteohub,2013-05-20 11:44:00,
2013-05-20 06:50:00,62.4,59.4,29.78,ESE,113,0.0,0.0,90,0.00,,,0.11,meteohub,2013-05-20 11:50:00,
2013-05-20 06:55:00,62.8,59.7,29.78,ESE,113,2.0,0.0,90,0.00,,,0.11,meteohub,2013-05-20 11:55:00,
2013-05-20 07:00:00,62.8,60.1,29.78,East,90,0.0,0.0,91,0.00,,,0.11,meteohub,2013-05-20 12:00:00,
2013-05-20 07:05:00,62.8,59.7,29.78,ENE,68,0.0,2.0,90,0.03,,,0.14,meteohub,2013-05-20 12:05:00,
2013-05-20 07:10:00,62.6,59.5,29.78,ESE,113,0.0,2.0,90,0.03,,,0.14,meteohub,2013-05-20 12:10:00,
2013-05-20 07:15:00,62.6,59.5,29.78,ESE,113,0.0,2.0,90,0.03,,,0.14,meteohub,2013-05-20 12:15:00,
2013-05-20 07:20:00,62.8,59.7,29.79,East,90,0.0,0.0,90,0.03,,,0.14,meteohub,2013-05-20 12:20:00,
2013-05-20 07:25:00,62.8,59.7,29.79,ESE,113,0.0,0.0,90,0.03,,,0.14,meteohub,2013-05-20 12:25:00,
2013-05-20 07:30:00,62.8,59.7,29.79,East,90,0.0,0.0,90,0.03,,,0.14,meteohub,2013-05-20 12:30:00,
2013-05-20 07:35:00,62.8,59.7,29.79,ESE,113,0.0,0.0,90,0.03,,,0.14,meteohub,2013-05-20 12:35:00,
2013-05-20 07:40:00,62.8,59.7,29.81,East,90,0.0,0.0,90,0.03,,,0.14,meteohub,2013-05-20 12:40:00,
2013-05-20 07:45:00,63.0,59.9,29.80,East,90,0.0,0.0,90,0.03,,,0.14,meteohub,2013-05-20 12:45:00,
2013-05-20 07:50:00,63.1,60.1,29.80,SSE,158,0.0,0.0,90,0.03,,,0.14,meteohub,2013-05-20 12:50:00,
2013-05-20 07:55:00,63.1,60.1,29.80,SE,135,0.0,0.0,90,0.03,,,0.14,meteohub,2013-05-20 12:55:00,
2013-05-20 08:00:00,63.1,60.1,29.81,East,90,0.0,0.0,90,0.00,,,0.14,meteohub,2013-05-20 13:00:00,
2013-05-20 08:05:00,63.1,60.1,29.81,ESE,113,2.0,2.0,90,0.00,,,0.14,meteohub,2013-05-20 13:05:00,
2013-05-20 08:10:00,63.1,60.1,29.81,East,90,2.0,2.0,90,0.00,,,0.14,meteohub,2013-05-20 13:10:00,
2013-05-20 08:15:00,63.1,60.1,29.81,East,90,3.0,3.0,90,0.00,,,0.14,meteohub,2013-05-20 13:15:00,
2013-05-20 08:20:00,63.1,60.1,29.80,ESE,113,3.0,3.0,90,0.00,,,0.14,meteohub,2013-05-20 13:20:00,
2013-05-20 08:25:00,63.1,60.1,29.80,ESE,113,4.0,4.0,90,0.00,,,0.14,meteohub,2013-05-20 13:25:00,
2013-05-20 08:30:00,63.1,60.1,29.80,ESE,113,0.0,4.0,90,0.00,,,0.14,meteohub,2013-05-20 13:30:00,
2013-05-20 08:35:00,63.5,60.4,29.80,SE,135,0.0,4.0,90,0.00,,,0.14,meteohub,2013-05-20 13:35:00,
2013-05-20 08:40:00,63.5,60.3,29.78,ESE,113,2.0,4.0,89,0.00,,,0.14,meteohub,2013-05-20 13:40:00,
2013-05-20 08:45:00,63.3,60.1,29.78,ESE,113,2.0,3.0,89,0.00,,,0.14,meteohub,2013-05-20 13:45:00,
2013-05-20 08:50:00,63.5,60.3,29.78,East,90,2.0,3.0,89,0.00,,,0.14,meteohub,2013-05-20 13:50:00,
2013-05-20 08:55:00,63.9,60.6,29.78,NW,315,2.0,3.0,89,0.00,,,0.14,meteohub,2013-05-20 13:55:00,
2013-05-20 09:00:00,63.9,60.6,29.79,East,90,2.0,5.0,89,0.00,,,0.14,meteohub,2013-05-20 14:00:00,
2013-05-20 09:05:00,63.7,60.4,29.79,ENE,68,2.0,5.0,89,0.00,,,0.14,meteohub,2013-05-20 14:05:00,
2013-05-20 09:10:00,63.7,60.4,29.79,WSW,248,0.0,3.0,89,0.00,,,0.14,meteohub,2013-05-20 14:10:00,
2013-05-20 09:15:00,63.7,60.4,29.79,South,180,0.0,3.0,89,0.00,,,0.14,meteohub,2013-05-20 14:15:00,
2013-05-20 09:20:00,63.7,60.4,29.79,South,180,0.0,2.0,89,0.00,,,0.14,meteohub,2013-05-20 14:20:00,
2013-05-20 09:25:00,64.2,60.6,29.79,ESE,113,5.0,5.0,88,0.00,,,0.14,meteohub,2013-05-20 14:25:00,
2013-05-20 09:30:00,64.4,60.8,29.79,ESE,113,2.0,5.0,88,0.00,,,0.14,meteohub,2013-05-20 14:30:00,
2013-05-20 09:35:00,64.9,61.3,29.78,ENE,68,2.0,5.0,88,0.00,,,0.14,meteohub,2013-05-20 14:35:00,
2013-05-20 09:40:00,64.9,61.3,29.78,East,90,2.0,5.0,88,0.00,,,0.14,meteohub,2013-05-20 14:40:00,
2013-05-20 09:45:00,65.1,61.2,29.78,ENE,68,2.0,3.0,87,0.00,,,0.14,meteohub,2013-05-20 14:45:00,
2013-05-20 09:51:00,65.1,61.2,29.78,ESE,113,2.0,2.0,87,0.00,,,0.14,meteohub,2013-05-20 14:51:00,
2013-05-20 09:55:00,65.3,61.3,29.78,NW,315,0.0,2.0,87,0.00,,,0.14,meteohub,2013-05-20 14:55:00,
2013-05-20 10:00:00,65.3,61.3,29.78,ESE,113,1.0,2.0,87,0.00,,,0.14,meteohub,2013-05-20 15:00:00,
2013-05-20 10:06:00,65.3,61.0,29.78,ESE,113,3.0,3.0,86,0.00,,,0.14,meteohub,2013-05-20 15:06:00,
2013-05-20 10:11:00,65.3,61.0,29.78,ESE,113,0.0,3.0,86,0.00,,,0.14,meteohub,2013-05-20 15:11:00,
2013-05-20 10:16:00,65.5,61.2,29.78,ESE,113,1.0,3.0,86,0.00,,,0.14,meteohub,2013-05-20 15:16:00,
2013-05-20 10:21:00,65.8,61.9,29.78,SE,135,2.0,3.0,87,0.00,,,0.14,meteohub,2013-05-20 15:21:00,
2013-05-20 10:26:00,66.0,61.7,29.77,ESE,113,4.0,4.0,86,0.00,,,0.14,meteohub,2013-05-20 15:26:00,
2013-05-20 10:31:00,66.2,61.9,29.77,ESE,113,3.0,4.0,86,0.00,,,0.14,meteohub,2013-05-20 15:31:00,
2013-05-20 10:36:00,67.1,63.1,29.77,ESE,113,0.0,4.0,87,0.00,,,0.14,meteohub,2013-05-20 15:36:00,
2013-05-20 10:41:00,67.5,63.1,29.77,SE,135,4.0,4.0,86,0.00,,,0.14,meteohub,2013-05-20 15:41:00,
2013-05-20 10:46:00,68.2,63.9,29.76,ESE,113,3.0,4.0,86,0.00,,,0.14,meteohub,2013-05-20 15:46:00,
2013-05-20 10:51:00,68.5,64.2,29.76,ESE,113,5.0,5.0,86,0.00,,,0.14,meteohub,2013-05-20 15:51:00,
2013-05-20 10:56:00,68.9,64.2,29.76,ESE,113,2.0,5.0,85,0.00,,,0.14,meteohub,2013-05-20 15:56:00,
2013-05-20 11:01:00,69.1,64.4,29.75,ESE,113,2.0,5.0,85,0.00,,,0.14,meteohub,2013-05-20 16:01:00,
2013-05-20 11:06:00,69.3,64.6,29.75,ESE,113,3.0,5.0,85,0.00,,,0.14,meteohub,2013-05-20 16:06:00,
2013-05-20 11:11:00,69.8,65.1,29.75,ENE,68,0.0,4.0,85,0.00,,,0.14,meteohub,2013-05-20 16:11:00,
2013-05-20 11:16:00,70.3,65.7,29.75,SE,135,2.0,5.0,85,0.00,,,0.14,meteohub,2013-05-20 16:16:00,
2013-05-20 11:21:00,70.3,65.3,29.79,ESE,113,3.0,5.0,84,0.00,,,0.14,meteohub,2013-05-20 16:21:00,
2013-05-20 11:26:00,70.7,65.7,29.79,ESE,113,2.0,5.0,84,0.00,,,0.14,meteohub,2013-05-20 16:26:00,
2013-05-20 11:31:00,70.9,65.8,29.79,ESE,113,4.0,4.0,84,0.00,,,0.14,meteohub,2013-05-20 16:31:00,
2013-05-20 11:36:00,71.6,66.6,29.79,WSW,248,2.0,4.0,84,0.00,,,0.14,meteohub,2013-05-20 16:36:00,
2013-05-20 11:41:00,72.1,67.1,29.78,ESE,113,2.0,4.0,84,0.00,,,0.14,meteohub,2013-05-20 16:41:00,
2013-05-20 11:46:00,72.5,67.5,29.78,ESE,113,5.0,5.0,84,0.00,,,0.14,meteohub,2013-05-20 16:46:00,
2013-05-20 11:51:00,72.9,67.8,29.78,SSW,203,3.0,5.0,84,0.00,,,0.14,meteohub,2013-05-20 16:51:00,
2013-05-20 11:56:00,73.0,67.6,29.78,SE,135,2.0,5.0,83,0.00,,,0.14,meteohub,2013-05-20 16:56:00,
2013-05-20 12:01:00,73.0,67.3,29.79,SE,135,2.0,5.0,82,0.00,,,0.14,meteohub,2013-05-20 17:01:00,
2013-05-20 12:06:00,73.2,67.5,29.79,SE,135,2.0,3.0,82,0.00,,,0.14,meteohub,2013-05-20 17:06:00,
2013-05-20 12:11:00,73.0,67.6,29.79,SW,225,4.0,10.0,83,0.00,,,0.14,meteohub,2013-05-20 17:11:00,
2013-05-20 12:16:00,73.2,67.5,29.79,South,180,6.0,10.0,82,0.00,,,0.14,meteohub,2013-05-20 17:16:00,
2013-05-20 12:21:00,73.6,67.8,29.75,ESE,113,2.0,10.0,82,0.00,,,0.14,meteohub,2013-05-20 17:21:00,
2013-05-20 12:26:00,73.6,67.8,29.75,ESE,113,4.0,7.0,82,0.00,,,0.14,meteohub,2013-05-20 17:26:00,
2013-05-20 12:31:00,73.9,68.2,29.75,ESE,113,2.0,6.0,82,0.00,,,0.14,meteohub,2013-05-20 17:31:00,
2013-05-20 12:36:00,73.8,68.0,29.75,SE,135,0.0,5.0,82,0.00,,,0.14,meteohub,2013-05-20 17:36:00,
2013-05-20 12:41:00,74.1,68.2,29.75,SSE,158,9.0,9.0,82,0.00,,,0.14,meteohub,2013-05-20 17:41:00,
2013-05-20 12:46:00,74.5,68.5,29.75,ESE,113,2.0,9.0,82,0.00,,,0.14,meteohub,2013-05-20 17:46:00,
2013-05-20 12:51:00,75.0,69.1,29.74,South,180,3.0,9.0,82,0.00,,,0.14,meteohub,2013-05-20 17:51:00,
2013-05-20 12:56:00,75.0,69.1,29.74,SSW,203,8.0,9.0,82,0.00,,,0.14,meteohub,2013-05-20 17:56:00,
2013-05-20 13:01:00,75.0,68.7,29.75,SW,225,7.0,8.0,81,0.00,,,0.14,meteohub,2013-05-20 18:01:00,
2013-05-20 13:06:00,74.8,68.5,29.75,WSW,248,5.0,9.0,81,0.00,,,0.14,meteohub,2013-05-20 18:06:00,
2013-05-20 13:11:00,74.7,68.0,29.75,South,180,8.0,9.0,80,0.00,,,0.14,meteohub,2013-05-20 18:11:00,
2013-05-20 13:16:00,74.3,68.0,29.75,SE,135,4.0,8.0,81,0.00,,,0.14,meteohub,2013-05-20 18:16:00,
2013-05-20 13:21:00,74.3,68.0,29.74,South,180,4.0,8.0,81,0.00,,,0.14,meteohub,2013-05-20 18:21:00,
2013-05-20 13:26:00,73.9,67.8,29.74,South,180,5.0,8.0,81,0.00,,,0.14,meteohub,2013-05-20 18:26:00,
2013-05-20 13:31:00,73.9,67.8,29.74,South,180,5.0,7.0,81,0.00,,,0.14,meteohub,2013-05-20 18:31:00,
2013-05-20 13:36:00,73.9,67.8,29.74,South,180,2.0,7.0,81,0.00,,,0.14,meteohub,2013-05-20 18:36:00,
2013-05-20 13:41:00,73.9,68.2,29.73,ESE,113,2.0,7.0,82,0.00,,,0.14,meteohub,2013-05-20 18:41:00,
2013-05-20 13:46:00,73.8,68.0,29.73,WSW,248,4.0,6.0,82,0.00,,,0.14,meteohub,2013-05-20 18:46:00,
2013-05-20 13:51:00,73.6,67.8,29.73,SSW,203,4.0,6.0,82,0.00,,,0.14,meteohub,2013-05-20 18:51:00,
2013-05-20 13:56:00,73.6,67.8,29.73,SW,225,6.0,6.0,82,0.00,,,0.14,meteohub,2013-05-20 18:56:00,
2013-05-20 14:01:00,73.6,67.8,29.72,SE,135,2.0,9.0,82,0.00,,,0.14,meteohub,2013-05-20 19:01:00,
2013-05-20 14:06:00,73.4,68.0,29.72,SE,135,0.0,9.0,83,0.00,,,0.14,meteohub,2013-05-20 19:06:00,
2013-05-20 14:11:00,73.4,67.6,29.72,West,270,1.0,9.0,82,0.00,,,0.14,meteohub,2013-05-20 19:11:00,
2013-05-20 14:16:00,73.6,67.8,29.72,SW,225,3.0,3.0,82,0.00,,,0.14,meteohub,2013-05-20 19:16:00,
2013-05-20 14:21:00,73.6,67.8,29.72,WSW,248,4.0,4.0,82,0.00,,,0.14,meteohub,2013-05-20 19:21:00,
2013-05-20 14:26:00,73.4,67.6,29.72,SE,135,0.0,7.0,82,0.00,,,0.14,meteohub,2013-05-20 19:26:00,
2013-05-20 14:31:00,73.2,67.8,29.73,ESE,113,2.0,7.0,83,0.00,,,0.14,meteohub,2013-05-20 19:31:00,
2013-05-20 14:36:00,73.0,67.6,29.72,ENE,68,0.0,7.0,83,0.00,,,0.14,meteohub,2013-05-20 19:36:00,
2013-05-20 14:41:00,73.2,67.8,29.72,South,180,0.0,7.0,83,0.00,,,0.14,meteohub,2013-05-20 19:41:00,
2013-05-20 14:46:00,73.2,67.8,29.72,South,180,1.0,2.0,83,0.00,,,0.14,meteohub,2013-05-20 19:46:00,
2013-05-20 14:51:00,73.0,67.6,29.72,SE,135,0.0,2.0,83,0.00,,,0.14,meteohub,2013-05-20 19:51:00,
2013-05-20 14:57:00,73.2,67.8,29.72,ESE,113,3.0,3.0,83,0.00,,,0.14,meteohub,2013-05-20 19:57:00,
2013-05-20 15:02:00,73.0,67.6,29.71,ESE,113,4.0,4.0,83,0.00,,,0.14,meteohub,2013-05-20 20:02:00,
2013-05-20 15:07:00,73.2,67.8,29.71,ESE,113,0.0,4.0,83,0.00,,,0.14,meteohub,2013-05-20 20:07:00,
2013-05-20 15:12:00,73.2,67.8,29.71,ESE,113,3.0,4.0,83,0.00,,,0.14,meteohub,2013-05-20 20:12:00,
2013-05-20 15:17:00,73.2,67.8,29.71,SE,135,0.0,4.0,83,0.00,,,0.14,meteohub,2013-05-20 20:17:00,
2013-05-20 15:22:00,73.2,67.8,29.70,ESE,113,4.0,4.0,83,0.00,,,0.14,meteohub,2013-05-20 20:22:00,
2013-05-20 15:27:00,73.2,67.8,29.70,ESE,113,2.0,4.0,83,0.00,,,0.14,meteohub,2013-05-20 20:27:00,
2013-05-20 15:32:00,73.2,67.8,29.70,ESE,113,1.0,4.0,83,0.00,,,0.14,meteohub,2013-05-20 20:32:00,
2013-05-20 15:37:00,73.2,67.8,29.70,SE,135,0.0,4.0,83,0.00,,,0.14,meteohub,2013-05-20 20:37:00,
2013-05-20 15:42:00,73.0,67.6,29.69,ESE,113,3.0,4.0,83,0.00,,,0.14,meteohub,2013-05-20 20:42:00,
2013-05-20 15:47:00,73.2,68.2,29.69,ESE,113,2.0,2.0,84,0.00,,,0.14,meteohub,2013-05-20 20:47:00,
2013-05-20 15:52:00,73.2,68.2,29.69,ESE,113,2.0,4.0,84,0.00,,,0.14,meteohub,2013-05-20 20:52:00,
2013-05-20 15:57:00,73.6,68.4,29.69,ESE,113,2.0,4.0,84,0.00,,,0.14,meteohub,2013-05-20 20:57:00,
2013-05-20 16:02:00,73.6,68.4,29.67,East,90,0.0,3.0,84,0.00,,,0.14,meteohub,2013-05-20 21:02:00,
2013-05-20 16:07:00,73.6,68.4,29.67,ESE,113,4.0,4.0,84,0.00,,,0.14,meteohub,2013-05-20 21:07:00,
2013-05-20 16:12:00,73.8,68.5,29.67,ESE,113,2.0,4.0,84,0.00,,,0.14,meteohub,2013-05-20 21:12:00,
2013-05-20 16:17:00,73.9,68.7,29.64,ESE,113,3.0,4.0,84,0.00,,,0.14,meteohub,2013-05-20 21:17:00,
2013-05-20 16:22:00,73.8,68.5,29.64,ESE,113,3.0,4.0,84,0.00,,,0.14,meteohub,2013-05-20 21:22:00,
2013-05-20 16:27:00,73.9,68.7,29.64,ESE,113,4.0,4.0,84,0.00,,,0.14,meteohub,2013-05-20 21:27:00,
2013-05-20 16:32:00,73.9,68.4,29.64,ESE,113,2.0,4.0,83,0.00,,,0.14,meteohub,2013-05-20 21:32:00,
2013-05-20 16:37:00,74.3,68.7,29.64,SE,135,0.0,4.0,83,0.00,,,0.14,meteohub,2013-05-20 21:37:00,
2013-05-20 16:42:00,74.1,68.5,29.65,SE,135,0.0,5.0,83,0.00,,,0.14,meteohub,2013-05-20 21:42:00,
2013-05-20 16:47:00,74.3,68.7,29.65,East,90,1.0,5.0,83,0.00,,,0.14,meteohub,2013-05-20 21:47:00,
2013-05-20 16:52:00,74.5,69.3,29.65,ESE,113,2.0,2.0,84,0.00,,,0.14,meteohub,2013-05-20 21:52:00,
2013-05-20 16:57:00,74.5,69.3,29.65,SE,135,0.0,2.0,84,0.00,,,0.14,meteohub,2013-05-20 21:57:00,
2013-05-20 17:02:00,74.3,68.7,29.66,ESE,113,1.0,2.0,83,0.00,,,0.14,meteohub,2013-05-20 22:02:00,
2013-05-20 17:07:00,74.3,68.7,29.66,ESE,113,4.0,4.0,83,0.00,,,0.14,meteohub,2013-05-20 22:07:00,
2013-05-20 17:12:00,74.5,69.3,29.65,ESE,113,2.0,4.0,84,0.00,,,0.14,meteohub,2013-05-20 22:12:00,
2013-05-20 17:17:00,74.5,69.3,29.65,ESE,113,2.0,4.0,84,0.00,,,0.14,meteohub,2013-05-20 22:17:00,
2013-05-20 17:22:00,74.5,69.3,29.64,SE,135,2.0,4.0,84,0.00,,,0.14,meteohub,2013-05-20 22:22:00,
2013-05-20 17:27:00,74.7,69.4,29.64,SW,225,2.0,4.0,84,0.00,,,0.14,meteohub,2013-05-20 22:27:00,
2013-05-20 17:32:00,74.7,69.4,29.64,SW,225,0.0,4.0,84,0.00,,,0.14,meteohub,2013-05-20 22:32:00,
2013-05-20 17:37:00,74.5,69.3,29.67,South,180,0.0,2.0,84,0.00,,,0.14,meteohub,2013-05-20 22:37:00,
2013-05-20 17:42:00,74.5,69.3,29.67,SSE,158,0.0,2.0,84,0.00,,,0.14,meteohub,2013-05-20 22:42:00,
2013-05-20 17:47:00,74.3,69.1,29.67,SW,225,0.0,0.0,84,0.00,,,0.14,meteohub,2013-05-20 22:47:00,
2013-05-20 17:52:00,74.5,69.3,29.67,ENE,68,1.0,2.0,84,0.00,,,0.14,meteohub,2013-05-20 22:52:00,
2013-05-20 17:57:00,74.7,69.4,29.65,South,180,0.0,2.0,84,0.00,,,0.14,meteohub,2013-05-20 22:57:00,
2013-05-20 18:02:00,74.5,69.3,29.65,South,180,0.0,2.0,84,0.00,,,0.14,meteohub,2013-05-20 23:02:00,
2013-05-20 18:07:00,74.5,69.3,29.65,SW,225,0.0,2.0,84,0.00,,,0.14,meteohub,2013-05-20 23:07:00,
2013-05-20 18:12:00,74.3,69.1,29.65,SSE,158,3.0,3.0,84,0.00,,,0.14,meteohub,2013-05-20 23:12:00,
2013-05-20 18:17:00,74.3,69.1,29.68,South,180,1.0,3.0,84,0.00,,,0.14,meteohub,2013-05-20 23:17:00,
2013-05-20 18:22:00,74.1,68.9,29.68,SSW,203,0.0,3.0,84,0.00,,,0.14,meteohub,2013-05-20 23:22:00,
2013-05-20 18:27:00,73.9,69.1,29.68,SE,135,0.0,3.0,85,0.00,,,0.14,meteohub,2013-05-20 23:27:00,
2013-05-20 18:32:00,73.8,68.9,29.68,SSE,158,0.0,3.0,85,0.00,,,0.14,meteohub,2013-05-20 23:32:00,
2013-05-20 18:37:00,73.9,69.1,29.70,South,180,0.0,3.0,85,0.00,,,0.14,meteohub,2013-05-20 23:37:00,
2013-05-20 18:42:00,73.8,68.9,29.70,SW,225,0.0,1.0,85,0.00,,,0.14,meteohub,2013-05-20 23:42:00,
2013-05-20 18:48:00,73.8,68.9,29.70,South,180,0.0,0.0,85,0.00,,,0.14,meteohub,2013-05-20 23:48:00,
2013-05-20 18:53:00,73.6,68.7,29.70,SW,225,0.0,1.0,85,0.00,,,0.14,meteohub,2013-05-20 23:53:00,
2013-05-20 18:58:00,73.6,68.7,29.70,WSW,248,3.0,3.0,85,0.00,,,0.14,meteohub,2013-05-20 23:58:00,
2013-05-20 19:03:00,73.6,68.7,29.70,WSW,248,0.0,2.0,85,0.00,,,0.14,meteohub,2013-05-21 00:03:00,
2013-05-20 19:08:00,73.6,68.7,29.70,NW,315,2.0,3.0,85,0.00,,,0.14,meteohub,2013-05-21 00:08:00,
2013-05-20 19:13:00,73.4,68.9,29.70,SE,135,5.0,5.0,86,0.02,,,0.16,meteohub,2013-05-21 00:13:00,
2013-05-20 19:18:00,73.0,68.5,29.72,South,180,4.0,5.0,86,0.13,,,0.27,meteohub,2013-05-21 00:18:00,
2013-05-20 19:23:00,72.7,68.2,29.72,South,180,6.0,7.0,86,0.16,,,0.30,meteohub,2013-05-21 00:23:00,
2013-05-20 19:28:00,71.1,65.3,29.73,South,180,6.0,13.0,82,0.27,,,0.35,meteohub,2013-05-21 00:28:00,
2013-05-20 19:33:00,69.3,64.2,29.73,SW,225,8.0,13.0,84,0.41,,,0.54,meteohub,2013-05-21 00:33:00,
2013-05-20 19:38:00,68.5,64.2,29.70,West,270,11.0,15.0,86,0.52,,,0.65,meteohub,2013-05-21 00:38:00,
2013-05-20 19:43:00,68.2,64.2,29.70,WSW,248,7.0,15.0,87,0.68,,,0.81,meteohub,2013-05-21 00:43:00,
2013-05-20 19:48:00,68.2,64.2,29.70,SW,225,5.0,15.0,87,0.79,,,0.93,meteohub,2013-05-21 00:48:00,
2013-05-20 19:53:00,68.0,64.0,29.70,South,180,1.0,11.0,87,0.79,,,0.93,meteohub,2013-05-21 00:53:00,
2013-05-20 19:58:00,68.0,64.4,29.73,NW,315,2.0,8.0,88,0.79,,,0.93,meteohub,2013-05-21 00:58:00,
2013-05-20 20:03:00,67.6,64.0,29.73,NW,315,6.0,6.0,88,0.79,,,0.93,meteohub,2013-05-21 01:03:00,
2013-05-20 20:08:00,67.5,63.9,29.73,WSW,248,3.0,6.0,88,0.81,,,0.98,meteohub,2013-05-21 01:08:00,
2013-05-20 20:13:00,67.3,63.7,29.73,WSW,248,2.0,6.0,88,0.76,,,0.98,meteohub,2013-05-21 01:13:00,
2013-05-20 20:18:00,67.5,63.9,29.78,NW,315,4.0,6.0,88,0.68,,,0.98,meteohub,2013-05-21 01:18:00,
2013-05-20 20:23:00,66.9,63.3,29.79,West,270,4.0,5.0,88,0.62,,,0.98,meteohub,2013-05-21 01:23:00,
2013-05-20 20:28:00,66.7,63.1,29.79,ESE,113,3.0,4.0,88,0.62,,,1.03,meteohub,2013-05-21 01:28:00,
2013-05-20 20:33:00,66.6,63.0,29.79,SSE,158,0.0,4.0,88,0.43,,,1.09,meteohub,2013-05-21 01:33:00,
2013-05-20 20:38:00,66.4,62.8,29.75,SW,225,0.0,4.0,88,0.27,,,1.09,meteohub,2013-05-21 01:38:00,
2013-05-20 20:43:00,66.0,62.4,29.75,ESE,113,2.0,4.0,88,0.16,,,1.09,meteohub,2013-05-21 01:43:00,
2013-05-20 20:48:00,65.7,62.2,29.75,East,90,0.0,2.0,89,0.16,,,1.09,meteohub,2013-05-21 01:48:00,
2013-05-20 20:53:00,65.3,62.1,29.75,ESE,113,2.0,3.0,89,0.16,,,1.09,meteohub,2013-05-21 01:53:00,
2013-05-20 20:58:00,64.9,61.7,29.77,ENE,68,2.0,3.0,89,0.19,,,1.11,meteohub,2013-05-21 01:58:00,
2013-05-20 21:03:00,64.8,61.5,29.77,ESE,113,2.0,3.0,89,0.16,,,1.11,meteohub,2013-05-21 02:03:00,
2013-05-20 21:08:00,64.8,61.7,29.77,ESE,113,3.0,3.0,90,0.14,,,1.11,meteohub,2013-05-21 02:08:00,
2013-05-20 21:13:00,64.9,61.9,29.77,SE,135,0.0,3.0,90,0.14,,,1.11,meteohub,2013-05-21 02:13:00,
2013-05-20 21:18:00,64.8,61.7,29.75,South,180,0.0,3.0,90,0.14,,,1.11,meteohub,2013-05-21 02:18:00,
2013-05-20 21:23:00,64.9,61.9,29.75,SSE,158,0.0,3.0,90,0.08,,,1.11,meteohub,2013-05-21 02:23:00,
2013-05-20 21:28:00,64.8,61.7,29.75,South,180,0.0,0.0,90,0.03,,,1.11,meteohub,2013-05-21 02:28:00,
2013-05-20 21:33:00,64.9,61.9,29.75,South,180,0.0,0.0,90,0.03,,,1.11,meteohub,2013-05-21 02:33:00,
2013-05-20 21:38:00,64.8,61.7,29.76,SE,135,0.0,0.0,90,0.03,,,1.11,meteohub,2013-05-21 02:38:00,
2013-05-20 21:43:00,64.8,61.7,29.76,SSE,158,0.0,0.0,90,0.03,,,1.11,meteohub,2013-05-21 02:43:00,
2013-05-20 21:48:00,64.9,61.9,29.76,SE,135,0.0,0.0,90,0.03,,,1.11,meteohub,2013-05-21 02:48:00,
2013-05-20 21:53:00,64.9,61.9,29.76,SSW,203,1.0,0.0,90,0.00,,,1.11,meteohub,2013-05-21 02:53:00,
2013-05-20 21:58:00,64.8,61.7,29.78,SW,225,0.0,1.0,90,0.00,,,1.11,meteohub,2013-05-21 02:58:00,
2013-05-20 22:03:00,64.6,61.9,29.78,WSW,248,2.0,2.0,91,0.00,,,1.11,meteohub,2013-05-21 03:03:00,
2013-05-20 22:08:00,64.6,61.9,29.78,South,180,0.0,1.0,91,0.00,,,1.11,meteohub,2013-05-21 03:08:00,
2013-05-20 22:13:00,64.6,61.9,29.78,South,180,0.0,2.0,91,0.00,,,1.11,meteohub,2013-05-21 03:13:00,
2013-05-20 22:18:00,64.6,61.9,29.78,SSE,158,0.0,2.0,91,0.00,,,1.11,meteohub,2013-05-21 03:18:00,
2013-05-20 22:23:00,64.6,61.9,29.78,WSW,248,0.0,0.0,91,0.00,,,1.11,meteohub,2013-05-21 03:23:00,
2013-05-20 22:28:00,64.6,61.9,29.78,SSE,158,0.0,0.0,91,0.00,,,1.11,meteohub,2013-05-21 03:28:00,
2013-05-20 22:33:00,64.6,61.9,29.78,SSE,158,1.0,0.0,91,0.00,,,1.11,meteohub,2013-05-21 03:33:00,
2013-05-20 22:38:00,64.6,61.9,29.76,South,180,3.0,3.0,91,0.00,,,1.11,meteohub,2013-05-21 03:38:00,
2013-05-20 22:43:00,64.9,62.6,29.76,SW,225,2.0,2.0,92,0.00,,,1.11,meteohub,2013-05-21 03:43:00,
2013-05-20 22:48:00,64.9,62.6,29.76,West,270,3.0,3.0,92,0.00,,,1.11,meteohub,2013-05-21 03:48:00,
2013-05-20 22:53:00,64.9,62.6,29.76,SSW,203,0.0,3.0,92,0.00,,,1.11,meteohub,2013-05-21 03:53:00,
2013-05-20 22:58:00,64.9,62.6,29.72,WNW,293,2.0,6.0,92,0.00,,,1.11,meteohub,2013-05-21 03:58:00,
2013-05-20 23:01:00,64.9,62.6,29.72,SSW,203,2.0,6.0,92,0.00,,,1.11,meteohub,2013-05-21 04:01:00,
2013-05-20 23:02:00,64.9,62.6,29.72,SSW,203,2.0,6.0,92,0.00,,,1.11,meteohub,2013-05-21 04:02:00,
2013-05-20 23:07:00,64.9,62.6,29.72,SSW,203,0.0,2.0,92,0.00,,,1.11,meteohub,2013-05-21 04:07:00,
2013-05-20 23:12:00,64.9,62.6,29.72,South,180,0.0,2.0,92,0.00,,,1.11,meteohub,2013-05-21 04:12:00,
2013-05-20 23:17:00,64.9,62.6,29.72,South,180,0.0,2.0,92,0.00,,,1.11,meteohub,2013-05-21 04:17:00,
2013-05-20 23:22:00,64.9,62.6,29.72,ESE,113,1.0,0.0,92,0.00,,,1.11,meteohub,2013-05-21 04:22:00,
2013-05-20 23:27:00,64.8,62.4,29.72,ESE,113,0.0,1.0,92,0.00,,,1.11,meteohub,2013-05-21 04:27:00,
2013-05-20 23:32:00,64.9,62.6,29.72,SE,135,0.0,1.0,92,0.00,,,1.11,meteohub,2013-05-21 04:32:00,
2013-05-20 23:37:00,64.9,62.6,29.72,SE,135,0.0,1.0,92,0.00,,,1.11,meteohub,2013-05-21 04:37:00,
2013-05-20 23:42:00,64.9,62.6,29.73,NE,45,0.0,0.0,92,0.00,,,1.11,meteohub,2013-05-21 04:42:00,
2013-05-20 23:47:00,64.8,62.4,29.73,SE,135,0.0,0.0,92,0.00,,,1.11,meteohub,2013-05-21 04:47:00,
2013-05-20 23:52:00,64.6,62.2,29.73,South,180,0.0,0.0,92,0.00,,,1.11,meteohub,2013-05-21 04:52:00,
2013-05-20 23:57:00,64.4,62.1,29.73,NW,315,4.0,0.0,92,0.00,,,1.11,meteohub,2013-05-21 04:57:00,